Time;durP1;ratioP1;P1;durP2;ratioP2;P2;SDS_P1;SDS_P2;PMS_P1;PMS_P2;Temp;Humidity;BMP_temperature;BMP_pressure;BME280_temperature;BME280_humidity;BME280_pressure;Samples;Min_cycle;Max_cycle;Signal;HPM_P1;HPM_P2
2022/04/18 00:01:49;;;;;;;14.60;10.17;;;6.20;56.10;;;;;;5043035;28;20072;-69
2022/04/18 00:04:15;;;;;;;16.60;9.97;;;6.20;56.00;;;;;;5020139;28;20041;-69
2022/04/18 00:06:41;;;;;;;12.87;9.90;;;6.10;56.20;;;;;;5039181;28;20037;-69
2022/04/18 00:09:07;;;;;;;14.40;10.40;;;6.10;56.30;;;;;;5022256;28;20493;-69
2022/04/18 00:11:33;;;;;;;13.70;10.40;;;6.00;56.20;;;;;;5029237;28;20045;-70
2022/04/18 00:13:59;;;;;;;14.15;10.40;;;6.00;56.10;;;;;;5042058;28;20075;-70
2022/04/18 00:16:25;;;;;;;14.43;9.60;;;6.00;56.30;;;;;;5043844;28;20841;-69
2022/04/18 00:18:51;;;;;;;14.00;10.13;;;6.00;56.50;;;;;;5046579;28;20036;-69
2022/04/18 00:21:18;;;;;;;14.05;9.82;;;5.90;56.50;;;;;;5039302;28;20041;-69
2022/04/18 00:23:44;;;;;;;15.35;10.52;;;5.90;56.60;;;;;;5018110;28;20441;-69
2022/04/18 00:26:11;;;;;;;14.93;10.30;;;5.80;56.70;;;;;;5040409;28;20041;-69
2022/04/18 00:28:37;;;;;;;16.58;10.95;;;5.80;56.80;;;;;;5041322;28;20095;-69
2022/04/18 00:31:03;;;;;;;15.38;10.68;;;5.70;57.10;;;;;;5037520;28;20041;-69
2022/04/18 00:33:29;;;;;;;14.57;10.50;;;5.70;57.20;;;;;;5029373;28;20040;-69
2022/04/18 00:35:55;;;;;;;15.00;11.00;;;5.70;57.30;;;;;;5045768;28;20067;-70
2022/04/18 00:38:22;;;;;;;14.98;10.60;;;5.70;57.40;;;;;;5019931;28;20327;-69
2022/04/18 00:40:48;;;;;;;14.77;10.52;;;5.60;57.40;;;;;;5043898;28;20062;-69
2022/04/18 00:43:14;;;;;;;16.50;11.07;;;5.60;57.40;;;;;;5028285;28;20279;-69
2022/04/18 00:45:40;;;;;;;15.90;10.93;;;5.60;57.50;;;;;;5038552;28;20051;-69
2022/04/18 00:48:06;;;;;;;15.38;11.07;;;5.60;57.20;;;;;;5021599;28;20124;-69
2022/04/18 00:50:34;;;;;;;15.73;10.95;;;5.50;57.40;;;;;;5043503;28;20037;-69
2022/04/18 00:53:04;;;;;;;15.50;11.68;;;5.50;57.70;;;;;;5025798;28;20041;-69
2022/04/18 00:55:33;;;;;;;16.65;10.73;;;5.50;57.50;;;;;;5026319;28;20155;-70
2022/04/18 00:58:00;;;;;;;15.05;10.68;;;5.50;57.50;;;;;;5020405;28;20055;-70
2022/04/18 01:00:26;;;;;;;16.52;11.63;;;5.40;57.80;;;;;;5034685;28;20056;-69
2022/04/18 01:02:52;;;;;;;17.07;11.63;;;5.40;57.70;;;;;;5040185;28;20049;-69
2022/04/18 01:05:18;;;;;;;15.83;11.33;;;5.30;57.50;;;;;;5041347;28;20391;-69
2022/04/18 01:07:44;;;;;;;16.33;10.52;;;5.30;58.00;;;;;;5013674;28;20123;-69
2022/04/18 01:10:10;;;;;;;15.13;10.87;;;5.30;58.00;;;;;;5039431;28;20164;-70
2022/04/18 01:12:36;;;;;;;18.53;11.43;;;5.20;58.30;;;;;;5013259;28;20994;-70
2022/04/18 01:15:02;;;;;;;16.67;11.23;;;5.20;58.50;;;;;;5045384;28;20065;-69
2022/04/18 01:17:27;;;;;;;15.90;10.98;;;5.10;58.30;;;;;;5028109;28;20056;-69
2022/04/18 01:19:53;;;;;;;17.97;11.70;;;5.10;58.60;;;;;;5028679;28;20061;-69
2022/04/18 01:22:19;;;;;;;14.53;10.93;;;5.10;58.50;;;;;;4987009;28;20129;-69
2022/04/18 01:30:16;;;;;;;17.00;11.68;;;5.00;58.50;;;;;;5020514;28;20448;-69
2022/04/18 01:32:42;;;;;;;17.77;12.52;;;5.00;58.80;;;;;;5004400;28;20052;-69
2022/04/18 01:35:08;;;;;;;21.83;12.60;;;4.90;59.00;;;;;;5041826;28;20048;-69
2022/04/18 01:37:36;;;;;;;18.23;12.23;;;4.90;58.80;;;;;;5023561;28;20405;-69
2022/04/18 01:40:05;;;;;;;15.85;12.02;;;4.80;59.30;;;;;;5029330;28;20044;-69
2022/04/18 01:42:31;;;;;;;17.02;11.90;;;4.80;59.50;;;;;;5043113;28;20094;-69
2022/04/18 01:44:57;;;;;;;17.33;12.98;;;4.80;59.60;;;;;;5029272;28;20048;-69
2022/04/18 01:47:23;;;;;;;19.70;13.20;;;4.70;59.80;;;;;;5017452;28;20130;-69
2022/04/18 01:49:49;;;;;;;20.30;12.77;;;4.70;59.90;;;;;;5036515;28;20033;-69
2022/04/18 01:52:15;;;;;;;17.30;12.23;;;4.70;59.80;;;;;;5005028;28;20045;-69
2022/04/18 01:54:41;;;;;;;20.42;12.90;;;4.60;60.60;;;;;;5019357;28;20041;-70
2022/04/18 01:57:06;;;;;;;19.90;13.40;;;4.60;60.80;;;;;;5024168;28;20099;-69
2022/04/18 01:59:32;;;;;;;20.80;14.50;;;4.60;60.60;;;;;;5023324;28;20637;-69
2022/04/18 02:01:58;;;;;;;22.27;15.47;;;4.50;60.30;;;;;;5020534;28;20037;-69
2022/04/18 02:04:23;;;;;;;22.80;15.13;;;4.50;60.40;;;;;;5006994;28;20119;-69
2022/04/18 02:06:49;;;;;;;20.60;13.97;;;4.50;60.60;;;;;;5040797;28;20098;-70
2022/04/18 02:09:15;;;;;;;20.83;13.63;;;4.50;60.70;;;;;;5027730;28;20069;-69
2022/04/18 02:11:41;;;;;;;22.53;15.10;;;4.50;60.80;;;;;;5040564;28;20086;-69
2022/04/18 02:14:06;;;;;;;18.83;14.37;;;4.40;60.10;;;;;;5021797;28;20042;-69
2022/04/18 02:16:32;;;;;;;24.07;16.10;;;4.30;60.80;;;;;;5024202;28;20080;-69
2022/04/18 02:18:58;;;;;;;27.10;16.20;;;4.30;60.70;;;;;;4992548;28;20128;-69
2022/04/18 02:21:24;;;;;;;25.30;15.77;;;4.30;60.70;;;;;;5029432;28;20044;-69
2022/04/18 02:23:50;;;;;;;25.77;16.77;;;4.20;60.40;;;;;;5026964;28;20044;-70
2022/04/18 02:26:15;;;;;;;27.33;17.80;;;4.20;60.60;;;;;;5039597;28;20048;-70
2022/04/18 02:28:41;;;;;;;29.77;18.10;;;4.10;60.90;;;;;;5021541;28;20121;-69
2022/04/18 02:31:08;;;;;;;23.23;16.00;;;4.10;61.10;;;;;;5022088;28;20568;-69
2022/04/18 02:33:34;;;;;;;25.95;16.95;;;4.10;61.10;;;;;;5039712;28;20637;-69
2022/04/18 02:36:01;;;;;;;27.60;17.00;;;4.10;61.20;;;;;;5010236;28;20036;-69
2022/04/18 02:38:28;;;;;;;24.20;15.60;;;4.10;60.90;;;;;;5006600;28;20137;-69
2022/04/18 02:40:54;;;;;;;24.77;16.05;;;4.00;61.10;;;;;;5021581;28;20129;-69
2022/04/18 02:43:20;;;;;;;24.33;16.10;;;4.00;60.80;;;;;;5030783;28;20113;-69
2022/04/18 02:45:45;;;;;;;23.90;15.07;;;4.00;61.10;;;;;;5007478;28;20450;-69
2022/04/18 02:48:11;;;;;;;21.47;14.57;;;4.00;60.80;;;;;;5039727;28;20912;-69
2022/04/18 02:50:37;;;;;;;20.87;14.93;;;4.00;61.00;;;;;;5031473;28;20524;-69
2022/04/18 02:53:05;;;;;;;21.35;14.52;;;4.00;61.00;;;;;;5032491;28;20362;-69
2022/04/18 02:55:31;;;;;;;23.77;15.13;;;3.90;60.80;;;;;;5038603;28;20067;-69
2022/04/18 02:57:57;;;;;;;22.60;15.77;;;3.90;61.40;;;;;;5040118;28;20052;-69
2022/04/18 03:00:22;;;;;;;22.13;14.37;;;3.90;60.90;;;;;;5009667;28;20559;-69
2022/04/18 03:02:48;;;;;;;22.23;13.87;;;3.90;61.00;;;;;;5026966;28;20045;-69
2022/04/18 03:05:14;;;;;;;24.10;14.77;;;3.90;60.70;;;;;;5027716;28;20103;-69
2022/04/18 03:07:40;;;;;;;21.77;13.70;;;3.90;60.60;;;;;;5043386;28;20033;-69
2022/04/18 03:10:06;;;;;;;19.80;14.20;;;4.00;61.30;;;;;;5046093;28;20123;-70
2022/04/18 03:12:32;;;;;;;18.55;13.45;;;3.90;61.10;;;;;;5028167;28;20060;-69
2022/04/18 03:14:58;;;;;;;24.07;13.73;;;3.90;61.50;;;;;;5030677;28;20053;-69
2022/04/18 03:17:24;;;;;;;19.47;13.40;;;3.90;61.10;;;;;;5031072;28;20049;-69
2022/04/18 03:19:50;;;;;;;21.70;15.47;;;3.90;60.90;;;;;;5042037;28;20043;-69
2022/04/18 03:22:15;;;;;;;20.63;14.13;;;3.90;60.90;;;;;;5023861;28;20041;-70
2022/04/18 03:24:41;;;;;;;19.40;14.30;;;3.90;61.20;;;;;;5040119;28;20412;-70
2022/04/18 03:27:07;;;;;;;21.83;13.77;;;3.90;61.10;;;;;;5022992;28;20045;-69
2022/04/18 03:29:33;;;;;;;21.55;14.00;;;3.80;61.50;;;;;;5027027;28;20044;-69
2022/04/18 03:31:59;;;;;;;22.73;15.60;;;3.80;61.30;;;;;;5036005;28;20041;-69
2022/04/18 03:34:25;;;;;;;24.80;15.60;;;3.80;61.50;;;;;;5014870;28;20044;-69
2022/04/18 03:39:50;;;;;;;22.55;15.43;;;3.80;61.60;;;;;;5040270;28;20067;-69
2022/04/18 03:42:29;;;;;;;22.90;16.08;;;3.70;61.60;;;;;;5010856;28;20041;-69
2022/04/18 03:44:55;;;;;;;27.55;16.92;;;3.70;61.50;;;;;;5036504;28;20835;-69
2022/04/18 03:47:20;;;;;;;25.13;17.08;;;3.70;61.40;;;;;;5039854;28;20047;-69
2022/04/18 03:49:46;;;;;;;26.23;16.97;;;3.70;61.60;;;;;;5024623;28;20048;-69
2022/04/18 03:52:12;;;;;;;27.93;18.40;;;3.70;61.40;;;;;;5022495;28;20036;-69
2022/04/18 03:54:42;;;;;;;25.53;17.00;;;3.60;61.60;;;;;;5044591;28;20037;-69
2022/04/18 03:57:11;;;;;;;27.50;16.83;;;3.60;61.70;;;;;;5015619;28;20746;-69
2022/04/18 03:59:36;;;;;;;26.80;17.13;;;3.60;62.10;;;;;;5046343;28;20405;-69
2022/04/18 04:02:03;;;;;;;29.07;17.33;;;3.60;62.00;;;;;;5036616;28;20037;-69
2022/04/18 04:04:29;;;;;;;28.60;17.50;;;3.50;62.20;;;;;;5010367;28;20037;-69
2022/04/18 04:06:54;;;;;;;28.95;17.38;;;3.50;62.10;;;;;;5045648;28;20052;-69
2022/04/18 04:09:20;;;;;;;25.60;16.97;;;3.50;62.00;;;;;;5018451;28;20045;-69
2022/04/18 04:11:46;;;;;;;26.87;17.60;;;3.40;61.90;;;;;;5024303;28;20048;-69
2022/04/18 04:14:12;;;;;;;25.03;17.07;;;3.40;62.10;;;;;;5020091;28;20128;-69
2022/04/18 04:16:38;;;;;;;24.67;16.90;;;3.40;62.40;;;;;;5007926;28;20045;-69
2022/04/18 04:19:05;;;;;;;26.55;17.10;;;3.40;62.40;;;;;;5042037;28;20044;-69
2022/04/18 04:21:30;;;;;;;25.38;16.23;;;3.30;62.70;;;;;;5047022;28;20094;-69
2022/04/18 04:24:00;;;;;;;22.98;16.10;;;3.30;62.60;;;;;;5020285;28;20118;-69
2022/04/18 04:26:26;;;;;;;25.58;17.88;;;3.30;62.60;;;;;;5023453;28;20040;-69
2022/04/18 04:28:51;;;;;;;26.57;17.63;;;3.20;62.80;;;;;;5027721;28;20494;-69
2022/04/18 04:31:17;;;;;;;29.60;20.43;;;3.20;62.70;;;;;;5038201;28;20124;-69
2022/04/18 04:33:43;;;;;;;28.57;19.33;;;3.20;62.90;;;;;;5021685;28;20804;-69
2022/04/18 04:36:08;;;;;;;31.20;18.63;;;3.20;63.20;;;;;;5028217;28;20901;-69
2022/04/18 04:38:34;;;;;;;28.53;18.13;;;3.20;62.90;;;;;;5025061;28;20075;-69
2022/04/18 04:41:02;;;;;;;25.83;17.58;;;3.20;62.80;;;;;;5023995;28;20049;-69
2022/04/18 04:43:28;;;;;;;27.73;18.05;;;3.20;63.10;;;;;;5012422;28;20094;-69
2022/04/18 04:46:02;;;;;;;23.87;17.47;;;3.20;63.00;;;;;;5040196;28;20053;-69
2022/04/18 04:48:28;;;;;;;28.40;18.88;;;3.20;63.20;;;;;;5011829;28;20370;-69
2022/04/18 04:50:54;;;;;;;27.53;18.57;;;3.20;63.20;;;;;;5019464;28;20152;-69
2022/04/18 04:53:20;;;;;;;29.77;19.87;;;3.30;63.00;;;;;;5025011;28;20287;-69
2022/04/18 04:55:45;;;;;;;29.37;19.70;;;3.30;63.00;;;;;;5038573;28;20298;-69
2022/04/18 04:58:12;;;;;;;25.90;17.23;;;3.30;63.00;;;;;;5024301;28;20041;-69
2022/04/18 05:00:39;;;;;;;27.15;18.38;;;3.30;62.90;;;;;;5012087;28;20040;-69
2022/04/18 05:03:05;;;;;;;24.67;17.02;;;3.30;62.60;;;;;;5025400;28;20041;-69
2022/04/18 05:05:32;;;;;;;26.90;17.83;;;3.40;62.70;;;;;;5028972;28;20041;-69
2022/04/18 05:07:58;;;;;;;27.60;17.80;;;3.40;62.70;;;;;;5027855;28;20054;-69
2022/04/18 05:10:24;;;;;;;26.55;17.73;;;3.40;62.40;;;;;;5020372;28;20041;-69
2022/04/18 05:12:50;;;;;;;27.93;17.93;;;3.50;62.60;;;;;;5020110;28;20060;-69
2022/04/18 05:15:16;;;;;;;25.20;17.77;;;3.50;62.70;;;;;;5030828;28;20306;-69
2022/04/18 05:17:42;;;;;;;21.30;16.27;;;3.50;62.50;;;;;;5045470;28;20041;-69
2022/04/18 05:20:09;;;;;;;23.27;17.10;;;3.60;62.40;;;;;;5022535;28;20594;-70
2022/04/18 05:22:35;;;;;;;25.60;16.80;;;3.60;62.20;;;;;;5046135;28;20404;-69
2022/04/18 05:25:01;;;;;;;26.77;17.25;;;3.70;62.00;;;;;;5036452;28;20037;-69
2022/04/18 05:27:27;;;;;;;24.23;16.85;;;3.70;61.80;;;;;;5021223;28;20048;-69
2022/04/18 05:29:52;;;;;;;28.07;16.60;;;3.80;61.80;;;;;;5046139;28;20740;-69
2022/04/18 05:32:18;;;;;;;23.13;16.97;;;3.80;61.70;;;;;;5001879;28;20056;-69
2022/04/18 05:34:44;;;;;;;23.60;16.13;;;3.90;62.00;;;;;;5041052;28;20052;-69
2022/04/18 05:37:10;;;;;;;21.10;16.00;;;3.90;61.90;;;;;;5029569;28;20037;-70
2022/04/18 05:39:36;;;;;;;24.77;17.33;;;4.00;61.90;;;;;;5003145;28;20292;-69
2022/04/18 05:42:03;;;;;;;26.53;16.73;;;4.00;61.70;;;;;;5007227;28;20048;-69
2022/04/18 05:44:33;;;;;;;25.45;16.67;;;4.10;62.00;;;;;;5029230;28;20033;-69
2022/04/18 05:46:59;;;;;;;22.17;17.05;;;4.10;61.90;;;;;;5039261;28;20121;-69
2022/04/18 05:49:24;;;;;;;23.73;16.35;;;4.20;62.00;;;;;;5028318;28;20045;-69
2022/04/18 05:51:50;;;;;;;23.47;16.80;;;4.30;61.80;;;;;;5008677;28;20048;-69
2022/04/18 05:54:16;;;;;;;24.20;17.30;;;4.40;61.90;;;;;;5038915;28;20034;-69
2022/04/18 05:56:41;;;;;;;24.10;17.07;;;4.50;62.30;;;;;;5012245;28;20045;-69
2022/04/18 05:59:07;;;;;;;24.50;16.63;;;4.60;62.10;;;;;;5021710;28;20056;-70
2022/04/18 06:01:35;;;;;;;24.70;17.43;;;4.60;62.00;;;;;;5026218;28;20055;-69
2022/04/18 06:04:01;;;;;;;22.70;15.82;;;4.80;62.00;;;;;;5045670;28;20047;-69
2022/04/18 06:06:27;;;;;;;21.60;15.90;;;4.90;62.00;;;;;;5018271;28;20406;-69
2022/04/18 06:08:53;;;;;;;19.20;15.43;;;5.00;61.80;;;;;;5037783;28;20845;-69
2022/04/18 06:11:18;;;;;;;22.07;16.90;;;5.10;61.50;;;;;;5037932;28;20171;-69
2022/04/18 06:13:44;;;;;;;24.53;16.67;;;5.30;61.30;;;;;;4994323;28;20041;-69
2022/04/18 06:16:10;;;;;;;23.80;15.73;;;5.40;61.10;;;;;;5012300;28;20056;-69
2022/04/18 06:18:36;;;;;;;24.80;16.03;;;5.60;61.20;;;;;;5034235;28;20052;-69
2022/04/18 06:21:01;;;;;;;21.43;15.87;;;5.70;61.40;;;;;;5042163;28;20128;-69
2022/04/18 06:23:27;;;;;;;26.13;18.40;;;5.90;61.20;;;;;;5024714;28;20046;-69
2022/04/18 06:25:53;;;;;;;21.37;16.57;;;6.00;61.20;;;;;;5035073;28;20044;-69
2022/04/18 06:28:19;;;;;;;26.23;17.73;;;6.10;61.00;;;;;;5035165;28;20048;-69
2022/04/18 06:30:45;;;;;;;23.45;16.00;;;6.30;60.90;;;;;;5033025;28;20033;-70
2022/04/18 06:33:12;;;;;;;27.13;17.73;;;6.40;60.60;;;;;;5034489;28;20043;-70
2022/04/18 06:35:38;;;;;;;22.48;16.45;;;6.50;60.70;;;;;;5026399;28;20045;-69
2022/04/18 06:38:05;;;;;;;22.00;16.58;;;6.70;60.10;;;;;;5001355;28;20060;-69
2022/04/18 06:40:31;;;;;;;23.55;15.50;;;6.80;60.00;;;;;;5029759;28;20868;-70
2022/04/18 06:42:57;;;;;;;22.33;15.57;;;7.00;59.80;;;;;;5042886;28;20036;-69
2022/04/18 06:45:24;;;;;;;20.60;15.00;;;7.10;59.30;;;;;;5038370;28;20048;-70
2022/04/18 06:47:49;;;;;;;21.88;14.52;;;7.30;59.20;;;;;;5049566;28;20040;-70
2022/04/18 06:50:16;;;;;;;22.20;14.77;;;7.50;58.90;;;;;;5033460;28;20051;-70
2022/04/18 06:52:46;;;;;;;21.40;14.52;;;7.60;58.40;;;;;;5043781;28;20043;-70
2022/04/18 06:55:11;;;;;;;18.92;14.57;;;7.80;57.90;;;;;;5031877;28;20044;-70
2022/04/18 06:57:38;;;;;;;21.83;14.47;;;8.00;57.60;;;;;;5050981;28;20037;-70
2022/04/18 07:00:05;;;;;;;19.75;14.60;;;8.10;57.20;;;;;;5034734;28;20070;-70
2022/04/18 07:02:31;;;;;;;18.67;13.63;;;8.30;56.60;;;;;;5042511;28;20063;-70
2022/04/18 07:04:56;;;;;;;19.17;13.07;;;8.40;56.10;;;;;;5017609;28;20381;-70
2022/04/18 07:07:22;;;;;;;19.20;13.40;;;8.60;55.30;;;;;;5021631;28;20033;-70
2022/04/18 07:09:48;;;;;;;18.60;13.00;;;8.70;55.30;;;;;;5022837;28;20040;-69
2022/04/18 07:12:13;;;;;;;19.40;12.77;;;8.90;53.80;;;;;;5040538;28;20037;-70
2022/04/18 07:14:39;;;;;;;14.97;12.23;;;9.10;53.40;;;;;;5012563;28;20044;-70
2022/04/18 07:17:08;;;;;;;16.40;11.83;;;9.20;53.50;;;;;;5037701;28;20072;-70
2022/04/18 07:19:34;;;;;;;18.02;12.15;;;9.40;53.30;;;;;;5046693;28;20043;-70
2022/04/18 07:22:02;;;;;;;19.57;12.03;;;9.50;52.10;;;;;;5034391;28;20040;-70
2022/04/18 07:24:27;;;;;;;18.88;11.35;;;9.70;52.30;;;;;;5024560;28;20543;-70
2022/04/18 07:26:53;;;;;;;18.70;10.73;;;9.90;51.00;;;;;;5031131;28;20044;-70
2022/04/18 07:29:19;;;;;;;15.70;11.57;;;10.00;51.20;;;;;;5040058;28;20041;-70
2022/04/18 07:31:45;;;;;;;18.87;11.40;;;10.20;50.40;;;;;;5020718;28;21520;-70
2022/04/18 07:34:11;;;;;;;14.80;10.43;;;10.30;51.10;;;;;;5044421;28;20486;-70
2022/04/18 07:36:36;;;;;;;14.63;10.33;;;10.50;49.90;;;;;;5034441;28;20110;-70
2022/04/18 07:39:02;;;;;;;16.30;10.73;;;10.60;50.10;;;;;;5040010;28;20086;-70
2022/04/18 07:41:29;;;;;;;15.82;10.48;;;10.80;49.80;;;;;;5029892;28;20045;-70
2022/04/18 07:43:58;;;;;;;14.05;8.95;;;10.90;50.10;;;;;;5033176;28;20040;-70
2022/04/18 07:46:23;;;;;;;14.55;9.57;;;11.10;48.70;;;;;;5025737;28;20051;-70
2022/04/18 07:48:51;;;;;;;14.23;9.47;;;11.20;48.70;;;;;;5044194;28;20493;-70
2022/04/18 07:51:36;;;;;;;13.32;9.68;;;11.30;48.80;;;;;;5028995;28;20060;-71
2022/04/18 07:54:06;;;;;;;16.42;10.45;;;11.40;47.60;;;;;;5040380;28;20123;-70
2022/04/18 07:56:33;;;;;;;14.55;9.57;;;11.60;47.40;;;;;;5042214;28;20052;-70
2022/04/18 07:58:59;;;;;;;14.23;9.80;;;11.70;47.40;;;;;;5047399;28;20052;-70
2022/04/18 08:01:25;;;;;;;13.13;9.23;;;11.80;47.40;;;;;;5014960;28;20049;-70
2022/04/18 08:03:50;;;;;;;15.80;10.50;;;11.90;47.90;;;;;;5040702;28;20043;-70
2022/04/18 08:06:16;;;;;;;15.63;10.07;;;12.00;47.00;;;;;;5043310;28;20033;-70
2022/04/18 08:08:43;;;;;;;14.43;10.27;;;12.10;46.90;;;;;;5048030;28;20059;-70
2022/04/18 08:11:12;;;;;;;12.88;9.70;;;12.20;47.20;;;;;;5039837;28;20834;-70
2022/04/18 08:13:39;;;;;;;14.55;10.00;;;12.30;46.70;;;;;;5049459;28;20040;-70
2022/04/18 08:16:05;;;;;;;14.15;10.38;;;12.40;46.10;;;;;;5029640;28;20057;-70
2022/04/18 08:18:31;;;;;;;14.02;9.57;;;12.50;47.00;;;;;;5026535;28;20049;-70
2022/04/18 08:20:57;;;;;;;14.07;10.07;;;12.60;46.20;;;;;;5035205;28;20049;-70
2022/04/18 08:23:23;;;;;;;14.50;9.93;;;12.70;46.00;;;;;;5025480;28;20048;-70
2022/04/18 08:25:49;;;;;;;13.70;9.45;;;12.80;46.20;;;;;;5037089;28;20120;-70
2022/04/18 08:28:14;;;;;;;10.80;9.30;;;12.90;46.10;;;;;;5038073;28;20604;-71
2022/04/18 08:30:40;;;;;;;13.30;9.30;;;13.00;46.30;;;;;;5000477;28;20047;-70
2022/04/18 08:33:06;;;;;;;15.33;10.07;;;13.10;46.70;;;;;;5025530;28;20056;-70
2022/04/18 08:35:32;;;;;;;12.80;9.15;;;13.20;46.00;;;;;;5020360;28;20540;-72
2022/04/18 08:38:00;;;;;;;12.57;9.53;;;13.30;45.10;;;;;;5008239;28;20040;-71
2022/04/18 08:40:25;;;;;;;12.13;9.43;;;13.40;46.20;;;;;;5039234;28;20052;-72
2022/04/18 08:42:57;;;;;;;13.20;9.80;;;13.50;46.80;;;;;;5035964;28;20063;-71
2022/04/18 08:45:25;;;;;;;12.57;9.85;;;13.70;45.70;;;;;;5014600;28;20048;-71
2022/04/18 08:53:26;;;;;;;13.80;10.20;;;14.00;44.80;;;;;;5019892;28;19960;-72
2022/04/18 08:55:52;;;;;;;13.13;9.80;;;14.00;44.80;;;;;;5012687;28;20494;-72
2022/04/18 08:58:18;;;;;;;17.50;11.10;;;14.10;45.10;;;;;;5018516;28;20045;-72
2022/04/18 09:00:44;;;;;;;12.43;9.23;;;14.20;45.30;;;;;;5037426;28;20045;-72
2022/04/18 09:03:10;;;;;;;12.00;9.27;;;14.30;45.10;;;;;;5040042;28;20095;-72
2022/04/18 09:05:37;;;;;;;15.33;9.83;;;14.50;45.40;;;;;;5025170;28;20045;-72
2022/04/18 09:08:09;;;;;;;11.77;9.23;;;14.60;45.20;;;;;;5033678;28;20124;-72
2022/04/18 09:10:36;;;;;;;13.20;9.67;;;14.80;45.30;;;;;;5034484;28;20045;-72
2022/04/18 09:13:07;;;;;;;12.20;9.18;;;14.90;45.00;;;;;;5029281;28;20291;-72
2022/04/18 09:15:42;;;;;;;11.30;9.07;;;15.10;45.10;;;;;;5025453;28;20064;-72
2022/04/18 09:18:13;;;;;;;11.45;8.57;;;15.30;43.30;;;;;;5043546;28;20692;-72
2022/04/18 09:20:46;;;;;;;10.80;7.93;;;15.40;43.30;;;;;;5028426;28;20047;-72
2022/04/18 09:23:28;;;;;;;10.13;8.40;;;15.50;42.60;;;;;;5042884;28;20290;-72
2022/04/18 09:26:02;;;;;;;12.70;8.20;;;15.70;43.10;;;;;;5017954;28;20736;-72
2022/04/18 09:28:42;;;;;;;11.00;8.13;;;15.80;43.00;;;;;;5038207;28;20291;-72
2022/04/18 09:31:09;;;;;;;10.70;7.57;;;15.90;42.90;;;;;;5018934;28;20282;-72
2022/04/18 09:33:38;;;;;;;10.20;7.83;;;16.00;42.50;;;;;;5020600;28;20345;-72
2022/04/18 09:36:19;;;;;;;9.33;7.83;;;16.00;41.60;;;;;;5038340;28;20675;-72
2022/04/18 09:38:47;;;;;;;9.93;7.67;;;16.10;41.00;;;;;;5028092;28;20292;-72
2022/04/18 09:41:14;;;;;;;11.87;8.17;;;16.20;40.90;;;;;;5037918;28;20757;-72
2022/04/18 09:43:42;;;;;;;9.60;7.63;;;16.30;40.60;;;;;;5020662;28;20406;-73
2022/04/18 09:46:09;;;;;;;9.63;7.43;;;16.40;41.20;;;;;;5039980;28;20693;-73
2022/04/18 09:48:36;;;;;;;11.07;8.87;;;16.50;40.00;;;;;;5039373;28;20291;-73
2022/04/18 09:51:10;;;;;;;8.67;7.47;;;16.60;40.50;;;;;;5016829;28;20279;-72
2022/04/18 09:53:39;;;;;;;11.32;7.72;;;16.70;39.50;;;;;;5043112;28;20378;-72
2022/04/18 09:56:05;;;;;;;10.23;7.87;;;16.70;40.20;;;;;;5039171;28;20108;-72
2022/04/18 09:58:32;;;;;;;9.93;7.40;;;16.80;40.30;;;;;;5031897;28;20315;-73
2022/04/18 10:01:01;;;;;;;8.53;6.47;;;16.80;40.20;;;;;;5010554;28;20288;-73
2022/04/18 10:03:28;;;;;;;8.50;6.87;;;16.90;39.70;;;;;;5045736;28;20291;-73
2022/04/18 10:05:55;;;;;;;9.00;7.17;;;17.10;39.40;;;;;;5020558;28;20323;-73
2022/04/18 10:08:21;;;;;;;11.03;7.33;;;17.20;40.10;;;;;;5031057;28;20287;-72
2022/04/18 10:10:48;;;;;;;9.47;7.10;;;17.30;40.40;;;;;;5041989;28;20514;-72
2022/04/18 10:13:14;;;;;;;9.57;7.70;;;17.40;40.40;;;;;;5028368;28;20284;-72
2022/04/18 10:15:40;;;;;;;8.43;7.40;;;17.50;40.60;;;;;;5020851;28;20327;-72
2022/04/18 10:18:08;;;;;;;8.87;7.70;;;17.60;39.20;;;;;;5044473;28;20695;-72
2022/04/18 10:20:40;;;;;;;10.43;6.80;;;17.70;39.30;;;;;;5041278;28;20303;-72
2022/04/18 10:23:20;;;;;;;8.83;6.77;;;17.80;39.60;;;;;;5041483;28;20303;-72
2022/04/18 10:26:17;;;;;;;8.00;6.40;;;17.90;40.20;;;;;;4964919;28;20332;-72
2022/04/18 10:28:48;;;;;;;8.13;6.00;;;18.00;39.80;;;;;;5035800;28;20552;-72
2022/04/18 10:31:22;;;;;;;8.27;6.20;;;18.20;39.20;;;;;;5025911;28;20303;-72
2022/04/18 10:33:49;;;;;;;10.20;6.80;;;18.30;39.80;;;;;;5039182;28;20314;-72
2022/04/18 10:36:25;;;;;;;8.70;6.37;;;18.40;38.30;;;;;;5017597;28;20529;-72
2022/04/18 10:38:50;;;;;;;9.43;6.10;;;18.50;37.50;;;;;;5041998;28;20287;-72
2022/04/18 10:41:39;;;;;;;8.90;6.10;;;18.40;38.10;;;;;;5039543;28;20297;-72
2022/04/18 10:44:08;;;;;;;9.57;6.10;;;18.40;38.40;;;;;;5023656;28;20045;-72
2022/04/18 10:47:03;;;;;;;7.20;5.77;;;18.40;37.80;;;;;;5036968;28;20328;-72
2022/04/18 10:49:31;;;;;;;6.50;4.65;;;18.50;36.90;;;;;;5056230;28;20275;-73
2022/04/18 10:52:08;;;;;;;5.37;4.70;;;18.60;36.60;;;;;;5042112;28;20064;-72
2022/04/18 10:54:34;;;;;;;6.80;5.60;;;18.70;36.50;;;;;;5039680;28;20366;-72
2022/04/18 10:57:13;;;;;;;6.33;4.93;;;18.80;37.00;;;;;;5026558;28;20735;-72
2022/04/18 10:59:42;;;;;;;8.03;5.60;;;18.90;36.70;;;;;;5032516;28;20312;-72
2022/04/18 11:02:08;;;;;;;7.60;5.10;;;19.00;37.30;;;;;;5016542;28;20370;-72
2022/04/18 11:04:40;;;;;;;7.20;5.87;;;19.10;36.40;;;;;;5018478;28;20291;-72
2022/04/18 11:07:08;;;;;;;5.03;4.43;;;19.10;37.00;;;;;;5033457;28;20656;-72
2022/04/18 11:09:39;;;;;;;5.73;4.07;;;19.20;37.00;;;;;;5038127;28;20279;-70
2022/04/18 11:12:08;;;;;;;6.17;4.17;;;19.30;36.30;;;;;;5029128;28;20375;-70
2022/04/18 11:14:51;;;;;;;5.77;3.63;;;19.40;36.00;;;;;;5047655;28;20379;-70
2022/04/18 11:17:33;;;;;;;4.63;3.67;;;19.50;34.90;;;;;;5012858;28;20863;-69
2022/04/18 11:20:29;;;;;;;4.03;2.73;;;19.60;33.20;;;;;;5022207;28;20288;-70
2022/04/18 11:23:30;;;;;;;4.40;2.78;;;19.70;32.00;;;;;;4985878;28;21094;-70
2022/04/18 11:25:58;;;;;;;4.50;3.60;;;19.80;31.20;;;;;;5015946;28;20107;-70
2022/04/18 11:28:34;;;;;;;6.43;4.03;;;19.80;33.40;;;;;;5020133;28;20849;-70
2022/04/18 11:31:01;;;;;;;5.07;4.27;;;19.80;33.60;;;;;;5019096;28;20281;-70
2022/04/18 11:33:27;;;;;;;4.80;3.70;;;19.80;33.20;;;;;;5003822;28;20375;-70
2022/04/18 11:36:01;;;;;;;4.57;3.70;;;19.70;33.40;;;;;;5003468;28;20390;-70
2022/04/18 11:38:26;;;;;;;6.93;3.13;;;19.80;33.90;;;;;;5004218;28;20042;-70
2022/04/18 11:40:52;;;;;;;3.33;2.60;;;20.00;33.70;;;;;;5018485;28;20041;-70
2022/04/18 11:43:18;;;;;;;2.37;2.00;;;20.00;32.30;;;;;;5005045;28;20161;-70
2022/04/18 11:45:44;;;;;;;4.07;2.80;;;20.10;32.60;;;;;;5002689;28;20054;-72
2022/04/18 11:48:13;;;;;;;4.40;3.37;;;20.10;33.20;;;;;;5001711;28;20041;-72
2022/04/18 11:50:43;;;;;;;4.43;3.67;;;20.10;32.50;;;;;;5006273;28;20033;-72
2022/04/18 11:53:10;;;;;;;6.33;3.97;;;20.30;32.90;;;;;;4988293;28;20276;-73
2022/04/18 11:55:54;;;;;;;4.63;3.30;;;20.30;33.00;;;;;;5021539;28;20780;-72
2022/04/18 11:58:21;;;;;;;5.63;2.70;;;20.40;32.10;;;;;;5021094;28;20371;-73
2022/04/18 12:09:07;;;;;;;3.90;3.20;;;20.50;32.00;;;;;;5019474;28;20050;-73
2022/04/18 12:11:36;;;;;;;4.60;2.90;;;20.50;31.80;;;;;;5018998;28;20757;-72
2022/04/18 12:14:03;;;;;;;3.87;2.47;;;20.50;31.30;;;;;;5022099;28;20284;-72
2022/04/18 12:16:35;;;;;;;3.70;2.57;;;20.60;31.00;;;;;;5022985;28;20880;-72
2022/04/18 12:19:01;;;;;;;4.57;2.97;;;20.60;30.80;;;;;;5020216;28;20303;-72
2022/04/18 12:21:27;;;;;;;4.10;2.83;;;20.70;30.50;;;;;;5004784;28;20298;-72
2022/04/18 12:23:58;;;;;;;5.13;3.20;;;20.70;31.50;;;;;;5025830;28;20130;-72
2022/04/18 12:26:29;;;;;;;5.43;3.37;;;20.80;32.20;;;;;;5025897;28;20076;-72
2022/04/18 12:29:05;;;;;;;5.60;3.40;;;20.80;32.10;;;;;;5042428;28;20771;-73
2022/04/18 12:31:31;;;;;;;4.33;3.20;;;20.80;32.80;;;;;;5043929;28;20279;-72
2022/04/18 12:33:58;;;;;;;4.80;3.20;;;20.90;31.70;;;;;;5036815;28;20473;-73
2022/04/18 12:36:30;;;;;;;3.90;2.90;;;20.80;31.30;;;;;;5024735;28;20340;-73
2022/04/18 12:38:56;;;;;;;4.37;3.20;;;20.90;31.40;;;;;;5024922;28;20048;-72
2022/04/18 12:41:29;;;;;;;4.63;3.43;;;21.00;31.60;;;;;;5021111;28;20037;-72
2022/04/18 12:43:56;;;;;;;4.60;3.27;;;21.00;31.80;;;;;;5024556;28;20037;-72
2022/04/18 12:46:32;;;;;;;4.80;3.00;;;21.10;32.80;;;;;;5035439;28;20331;-73
2022/04/18 12:49:02;;;;;;;6.03;3.20;;;21.20;31.60;;;;;;5027485;28;20043;-70
2022/04/18 12:51:39;;;;;;;4.30;3.27;;;21.20;30.00;;;;;;5039948;28;20339;-71
2022/04/18 12:54:24;;;;;;;4.57;3.03;;;21.30;30.80;;;;;;5041446;28;20136;-71
2022/04/18 12:56:51;;;;;;;;;;;21.30;30.40;;;;;;5025435;28;20120;-71
2022/04/18 12:59:32;;;;;;;4.30;3.17;;;21.40;29.70;;;;;;5043613;28;20270;-71
2022/04/18 13:02:06;;;;;;;4.10;3.03;;;21.40;30.40;;;;;;5026885;28;20045;-71
2022/04/18 13:04:32;;;;;;;4.07;3.20;;;21.40;30.50;;;;;;5007109;28;20504;-71